Time;durP1;ratioP1;P1;durP2;ratioP2;P2;SDS_P1;SDS_P2;PMS_P1;PMS_P2;Temp;Humidity;BMP_temperature;BMP_pressure;BME280_temperature;BME280_humidity;BME280_pressure;Samples;Min_cycle;Max_cycle;Signal;HPM_P1;HPM_P2
2022/08/15 00:00:17;;;;;;;11.20;7.87;;;;;;;23.77;54.48;100202.56;4896530;29;20047;-50
2022/08/15 00:02:44;;;;;;;9.73;8.18;;;;;;;23.72;54.69;100183.41;4896593;29;20581;-48
2022/08/15 00:05:13;;;;;;;12.95;7.57;;;;;;;23.70;55.34;100180.09;4897069;29;20552;-46
2022/08/15 00:07:39;;;;;;;8.98;8.07;;;;;;;23.67;54.62;100195.97;4896248;29;20407;-47
2022/08/15 00:10:07;;;;;;;8.65;7.75;;;;;;;23.67;55.00;100198.69;4897434;29;20044;-48
2022/08/15 00:12:34;;;;;;;10.40;7.60;;;;;;;23.65;55.09;100197.03;4900344;29;20501;-47
2022/08/15 00:14:59;;;;;;;10.70;8.18;;;;;;;23.58;55.28;100193.53;4900247;29;20032;-48
2022/08/15 00:17:25;;;;;;;10.70;7.95;;;;;;;23.58;55.31;100198.09;4900198;29;20092;-46
2022/08/15 00:19:50;;;;;;;11.43;8.10;;;;;;;23.57;54.65;100202.72;4912569;29;20033;-47
2022/08/15 00:22:18;;;;;;;10.20;8.13;;;;;;;23.55;55.33;100198.53;4899884;29;20374;-47
2022/08/15 00:24:46;;;;;;;10.05;8.20;;;;;;;23.54;54.77;100199.59;4908088;29;20620;-48
2022/08/15 00:27:12;;;;;;;9.48;8.52;;;;;;;23.44;56.20;100203.63;4918673;29;20043;-50
2022/08/15 00:29:38;;;;;;;12.13;8.67;;;;;;;23.48;55.19;100209.41;4917836;29;20421;-51
2022/08/15 00:32:07;;;;;;;9.13;8.25;;;;;;;23.45;55.24;100207.19;4907078;29;20293;-49
2022/08/15 00:34:32;;;;;;;9.68;8.27;;;;;;;23.39;55.60;100200.72;4905480;29;20509;-51
2022/08/15 00:36:59;;;;;;;11.55;9.52;;;;;;;23.31;55.34;100198.28;4904854;29;20111;-48
2022/08/15 00:39:26;;;;;;;10.07;9.07;;;;;;;23.32;54.75;100202.66;4887870;29;20028;-47
2022/08/15 00:41:52;;;;;;;12.65;7.80;;;;;;;23.27;53.51;100197.88;4903086;29;20072;-47
2022/08/15 00:44:24;;;;;;;11.95;8.02;;;;;;;23.25;52.36;100201.88;4901714;29;20721;-47
2022/08/15 00:46:53;;;;;;;8.75;6.90;;;;;;;23.22;51.87;100199.59;4912009;29;20467;-48
2022/08/15 00:49:19;;;;;;;11.15;6.30;;;;;;;23.22;50.51;100202.31;4898306;29;20082;-47
2022/08/15 00:51:53;;;;;;;7.13;6.43;;;;;;;23.19;50.11;100197.31;4933597;23;20062;-46
2022/08/15 00:54:26;;;;;;;7.43;5.82;;;;;;;23.20;49.22;100207.09;4916892;29;20040;-46
2022/08/15 00:57:00;;;;;;;6.50;5.35;;;;;;;23.16;49.26;100200.44;4918668;29;20032;-45
2022/08/15 00:59:31;;;;;;;7.18;4.85;;;;;;;23.16;48.27;100198.56;4918338;29;20384;-45
2022/08/15 01:01:59;;;;;;;5.53;4.53;;;;;;;23.13;47.27;100199.00;4917359;29;20540;-46
2022/08/15 01:04:26;;;;;;;6.63;4.40;;;;;;;23.14;47.90;100205.25;4918141;29;20036;-46
2022/08/15 01:06:51;;;;;;;6.20;3.90;;;;;;;23.13;47.37;100206.28;4918451;29;20031;-46
2022/08/15 01:09:18;;;;;;;7.70;4.13;;;;;;;23.12;46.62;100205.47;4918034;29;20476;-46
2022/08/15 01:11:57;;;;;;;5.70;4.05;;;;;;;23.13;46.54;100207.13;4917104;29;20021;-47
2022/08/15 01:14:23;;;;;;;6.65;3.38;;;;;;;23.09;46.19;100200.47;4918077;29;20120;-46
2022/08/15 01:16:50;;;;;;;9.70;3.60;;;;;;;23.09;46.05;100195.06;4917186;29;20071;-46
2022/08/15 01:19:26;;;;;;;6.30;3.83;;;;;;;23.05;46.10;100189.22;4917864;29;20032;-46
2022/08/15 01:22:18;;;;;;;4.50;3.33;;;;;;;23.05;45.96;100191.94;4916511;29;20115;-46
2022/08/15 01:24:48;;;;;;;4.93;3.00;;;;;;;22.99;46.33;100197.38;4917858;29;20036;-47
2022/08/15 01:27:16;;;;;;;3.25;3.00;;;;;;;22.97;45.92;100194.06;4916299;29;20036;-46
2022/08/15 01:29:42;;;;;;;4.73;3.10;;;;;;;22.95;45.76;100194.28;4917919;29;20032;-46
2022/08/15 01:32:07;;;;;;;8.25;3.38;;;;;;;22.97;45.35;100189.47;4918090;29;20388;-46
2022/08/15 01:34:33;;;;;;;5.15;2.78;;;;;;;22.91;45.78;100179.50;4917758;29;20028;-49
2022/08/15 01:36:59;;;;;;;5.45;2.90;;;;;;;22.88;45.60;100194.31;4916566;29;20082;-46
2022/08/15 01:39:37;;;;;;;3.78;2.78;;;;;;;22.87;45.48;100194.53;4917567;29;20414;-47
2022/08/15 01:42:21;;;;;;;6.27;2.70;;;;;;;22.87;45.91;100187.22;4917548;29;20032;-49
2022/08/15 01:45:05;;;;;;;5.07;2.90;;;;;;;22.87;45.48;100194.53;4907559;29;20306;-46
2022/08/15 01:47:38;;;;;;;7.78;3.05;;;;;;;22.80;45.43;100207.22;4917220;29;20051;-46
2022/08/15 01:50:14;;;;;;;3.70;2.83;;;;;;;22.78;45.58;100207.44;4917516;29;20033;-47
2022/08/15 01:53:15;;;;;;;4.07;2.55;;;;;;;22.76;45.44;100208.72;4908109;29;20127;-47
2022/08/15 01:55:47;;;;;;;6.97;2.45;;;;;;;22.61;45.86;100204.38;4902066;29;20123;-47
2022/08/15 01:58:14;;;;;;;6.63;2.60;;;;;;;22.61;45.38;100192.72;4909406;29;20385;-48
2022/08/15 02:00:51;;;;;;;5.30;3.17;;;;;;;22.59;45.64;100198.34;4915800;29;20028;-49
2022/08/15 02:03:16;;;;;;;4.68;2.25;;;;;;;22.59;45.69;100197.53;4917467;29;20028;-45
2022/08/15 02:05:42;;;;;;;6.65;2.60;;;;;;;22.53;45.44;100199.19;4915956;29;20032;-46
2022/08/15 02:08:07;;;;;;;4.15;2.70;;;;;;;22.51;45.64;100199.41;4915075;29;20480;-46
2022/08/15 02:10:32;;;;;;;3.77;2.50;;;;;;;22.44;45.76;100198.59;4911752;29;20051;-46
2022/08/15 02:12:58;;;;;;;3.97;2.60;;;;;;;22.41;46.14;100198.19;4917231;29;20290;-45
2022/08/15 02:15:23;;;;;;;3.00;2.40;;;;;;;22.41;45.65;100199.00;4916606;29;20122;-47
2022/08/15 02:17:48;;;;;;;3.60;2.50;;;;;;;22.37;45.92;100196.97;4900614;29;20316;-46
2022/08/15 02:20:16;;;;;;;6.43;2.70;;;;;;;22.28;46.44;100201.72;4901893;29;20492;-47
2022/08/15 02:22:41;;;;;;;5.30;2.50;;;;;;;22.27;45.59;100195.47;4916852;29;20127;-47
2022/08/15 02:25:08;;;;;;;5.55;2.60;;;;;;;22.25;46.31;100199.41;4908168;29;20072;-46
2022/08/15 02:27:37;;;;;;;4.05;2.65;;;;;;;22.21;46.33;100196.31;4912337;29;20160;-47
2022/08/15 02:30:06;;;;;;;;;;;;;;;22.33;45.89;100196.53;4917413;29;20060;-49
2022/08/15 02:32:31;;;;;;;6.85;2.80;;;;;;;22.21;46.48;100195.47;4915845;29;19907;-50
2022/08/15 02:34:59;;;;;;;7.03;2.58;;;;;;;22.11;46.73;100194.03;4916220;29;20035;-50
2022/08/15 02:37:24;;;;;;;3.72;2.50;;;;;;;22.14;46.71;100193.59;4911490;29;20032;-48
2022/08/15 02:39:52;;;;;;;5.03;2.55;;;;;;;22.09;46.95;100192.59;4916745;29;20031;-49
2022/08/15 02:42:19;;;;;;;4.30;2.97;;;;;;;22.04;46.76;100198.63;4916888;29;20042;-48
2022/08/15 02:44:45;;;;;;;5.60;2.83;;;;;;;22.03;46.60;100207.75;4912299;29;20393;-48
2022/08/15 02:47:14;;;;;;;4.20;2.80;;;;;;;22.02;46.81;100210.69;4911039;29;20028;-49
2022/08/15 02:49:40;;;;;;;;;;;;;;;22.12;46.17;100213.81;4916046;29;20024;-50
2022/08/15 02:52:06;;;;;;;6.38;2.60;;;;;;;21.97;46.92;100204.03;4916243;29;19919;-50
2022/08/15 02:54:31;;;;;;;5.00;3.10;;;;;;;21.95;46.81;100206.13;4916275;29;20118;-48
2022/08/15 02:56:57;;;;;;;3.47;2.60;;;;;;;21.91;46.73;100201.31;4916691;29;20036;-47
2022/08/15 02:59:23;;;;;;;4.75;2.75;;;;;;;21.93;47.21;100196.53;4916137;29;21060;-50
2022/08/15 03:01:49;;;;;;;5.88;3.25;;;;;;;21.87;47.45;100202.78;4916513;29;20075;-49
2022/08/15 03:04:19;;;;;;;6.38;2.92;;;;;;;21.90;47.58;100203.22;4916426;29;20511;-48
2022/08/15 03:06:45;;;;;;;4.22;2.80;;;;;;;21.86;47.84;100201.94;4916611;29;20111;-47
2022/08/15 03:09:12;;;;;;;5.85;2.90;;;;;;;21.85;47.62;100213.81;4916705;29;20114;-47
2022/08/15 03:11:41;;;;;;;5.72;2.70;;;;;;;21.73;48.07;100200.09;4927754;29;20060;-47
2022/08/15 03:14:08;;;;;;;5.85;2.92;;;;;;;21.75;48.15;100216.06;4916310;29;20042;-47
2022/08/15 03:16:36;;;;;;;2.83;2.58;;;;;;;21.76;47.33;100215.03;4906672;29;20394;-48
2022/08/15 03:19:03;;;;;;;8.38;3.28;;;;;;;21.69;48.18;100216.91;4912902;29;20033;-48
2022/08/15 03:21:29;;;;;;;4.95;3.05;;;;;;;21.67;48.00;100216.28;4916200;29;20035;-48
2022/08/15 03:23:55;;;;;;;6.85;3.08;;;;;;;21.64;48.10;100203.19;4914837;29;20492;-49
2022/08/15 03:26:22;;;;;;;5.65;2.92;;;;;;;21.60;48.45;100205.47;4902854;29;20468;-48
2022/08/15 03:28:48;;;;;;;8.10;3.22;;;;;;;21.61;48.26;100207.13;4911522;29;20043;-48
2022/08/15 03:31:14;;;;;;;5.13;2.78;;;;;;;21.60;48.12;100206.31;4916289;29;20028;-48
2022/08/15 03:33:42;;;;;;;9.10;3.13;;;;;;;21.50;48.78;100208.56;4915980;29;20036;-47
2022/08/15 03:36:08;;;;;;;4.77;2.80;;;;;;;21.54;48.55;100215.22;4915843;29;20373;-48
2022/08/15 03:38:34;;;;;;;4.72;3.20;;;;;;;21.52;48.20;100213.78;4915943;29;20075;-46
2022/08/15 03:40:59;;;;;;;5.00;3.13;;;;;;;21.50;48.78;100211.28;4907680;29;20536;-47
2022/08/15 03:43:28;;;;;;;6.38;3.20;;;;;;;21.44;48.79;100209.34;4916021;29;20032;-47
2022/08/15 03:45:57;;;;;;;6.07;3.22;;;;;;;21.42;48.64;100211.44;4918294;29;20035;-47
2022/08/15 03:48:25;;;;;;;7.28;3.20;;;;;;;21.42;49.01;100214.13;4918371;29;20036;-47
2022/08/15 03:50:53;;;;;;;3.95;3.15;;;;;;;21.32;49.28;100206.41;4919687;29;20476;-48
2022/08/15 03:53:19;;;;;;;6.70;3.28;;;;;;;21.32;49.69;100216.41;4915263;29;20100;-48
2022/08/15 03:55:45;;;;;;;4.85;3.33;;;;;;;21.24;49.81;100218.22;4919617;29;20024;-47
2022/08/15 03:58:11;;;;;;;6.38;3.28;;;;;;;21.25;49.76;100225.31;4919658;29;20340;-47
2022/08/15 04:00:46;;;;;;;6.03;3.38;;;;;;;21.21;49.74;100215.94;4919599;29;20035;-50
2022/08/15 04:03:14;;;;;;;8.38;3.20;;;;;;;21.16;50.17;100221.09;4913281;29;20036;-48
2022/08/15 04:05:43;;;;;;;8.43;3.70;;;;;;;21.17;50.71;100220.09;4919819;29;20080;-47
2022/08/15 04:08:10;;;;;;;6.85;3.20;;;;;;;21.14;50.58;100219.66;4919239;29;20028;-48
2022/08/15 04:10:37;;;;;;;8.32;3.72;;;;;;;21.14;50.73;100215.09;4918822;29;20043;-50
2022/08/15 04:13:04;;;;;;;7.55;3.47;;;;;;;21.08;51.78;100213.19;4918495;29;20028;-51
2022/08/15 04:15:30;;;;;;;5.50;3.80;;;;;;;21.11;51.38;100211.97;4919841;29;20028;-48
2022/08/15 04:17:56;;;;;;;7.65;3.70;;;;;;;21.04;52.21;100214.63;4919063;29;20388;-48
2022/08/15 04:20:21;;;;;;;6.22;3.78;;;;;;;21.00;52.97;100216.91;4909142;29;20040;-46
2022/08/15 04:22:49;;;;;;;9.27;3.50;;;;;;;21.00;53.17;100216.91;4912486;29;20429;-48
2022/08/15 04:25:31;;;;;;;7.20;3.53;;;;;;;20.99;52.48;100214.41;4912112;29;20358;-48
2022/08/15 04:28:03;;;;;;;7.35;3.72;;;;;;;21.02;53.34;100217.53;4903968;29;20033;-47
2022/08/15 04:30:31;;;;;;;8.25;3.45;;;;;;;21.03;53.88;100223.75;4915210;29;20051;-50
2022/08/15 04:33:08;;;;;;;6.77;3.80;;;;;;;21.03;52.99;100223.75;4919710;29;20024;-48
2022/08/15 04:35:34;;;;;;;9.32;4.07;;;;;;;21.01;53.80;100223.13;4933850;29;20036;-47
2022/08/15 04:37:59;;;;;;;5.45;3.50;;;;;;;20.97;54.83;100216.47;4918583;29;20032;-48
2022/08/15 04:40:25;;;;;;;7.93;3.95;;;;;;;20.99;54.55;100220.63;4919063;29;20039;-48
2022/08/15 04:42:58;;;;;;;9.68;3.83;;;;;;;20.99;54.84;100219.81;4919513;29;20028;-48
2022/08/15 04:45:24;;;;;;;9.23;3.78;;;;;;;20.98;55.23;100221.66;4919210;29;20103;-47
2022/08/15 04:47:50;;;;;;;6.72;3.78;;;;;;;20.99;55.46;100227.91;4910951;29;20457;-47
2022/08/15 04:50:15;;;;;;;9.48;4.32;;;;;;;21.03;56.13;100226.47;4917517;29;20039;-49
2022/08/15 04:52:49;;;;;;;11.57;3.88;;;;;;;21.01;55.80;100226.66;4918047;29;20044;-47
2022/08/15 04:55:15;;;;;;;5.97;4.28;;;;;;;21.03;56.74;100223.75;4918991;29;20059;-48
2022/08/15 04:57:41;;;;;;;8.40;3.80;;;;;;;21.06;55.93;100223.34;4917550;29;20119;-48
2022/08/15 05:00:10;;;;;;;8.98;3.63;;;;;;;21.02;57.17;100230.22;4919163;29;20128;-49
2022/08/15 05:02:37;;;;;;;8.70;3.58;;;;;;;21.04;56.63;100228.13;4913893;29;20040;-50
2022/08/15 05:05:05;;;;;;;10.68;4.20;;;;;;;21.09;56.93;100232.94;4918223;29;20028;-48
2022/08/15 05:07:31;;;;;;;8.18;4.22;;;;;;;21.10;56.97;100229.19;4917555;29;20039;-48
2022/08/15 05:09:57;;;;;;;9.20;3.70;;;;;;;21.09;57.17;100235.63;4918001;29;20485;-48
2022/08/15 05:12:23;;;;;;;8.50;3.97;;;;;;;21.14;57.38;100225.88;4918680;29;20070;-48
2022/08/15 05:14:49;;;;;;;6.43;3.67;;;;;;;21.16;57.24;100225.69;4918821;29;20051;-49
2022/08/15 05:17:14;;;;;;;5.70;4.03;;;;;;;21.17;58.23;100235.47;4917775;29;20546;-47
2022/08/15 05:19:39;;;;;;;5.22;3.63;;;;;;;21.18;57.43;100247.91;4918489;29;20506;-48
2022/08/15 05:22:05;;;;;;;8.37;4.00;;;;;;;21.18;57.93;100232.56;4918503;29;20083;-47
2022/08/15 05:24:30;;;;;;;8.52;3.67;;;;;;;21.21;58.05;100250.22;4918132;29;20641;-47
2022/08/15 05:26:55;;;;;;;7.32;3.80;;;;;;;21.22;57.50;100250.00;4917632;29;20036;-46
2022/08/15 05:29:20;;;;;;;10.75;3.45;;;;;;;21.22;57.73;100260.81;4918622;29;20059;-48
2022/08/15 05:31:46;;;;;;;6.20;3.70;;;;;;;21.24;57.95;100258.75;4918625;29;20107;-49
2022/08/15 05:34:11;;;;;;;7.20;3.90;;;;;;;21.25;58.29;100257.72;4918630;29;20077;-45
2022/08/15 05:36:37;;;;;;;9.17;4.30;;;;;;;21.24;60.65;100268.72;4918044;29;20028;-47
2022/08/15 05:39:28;;;;;;;9.73;4.28;;;;;;;21.26;59.20;100263.94;4917876;29;20328;-47
2022/08/15 05:42:05;;;;;;;10.05;4.85;;;;;;;21.26;60.13;100266.66;4918349;29;20044;-46
2022/08/15 05:44:58;;;;;;;7.57;4.03;;;;;;;21.29;60.71;100268.94;4918366;29;20111;-48
2022/08/15 05:47:37;;;;;;;10.10;4.07;;;;;;;21.23;60.69;100261.63;4907249;29;20040;-48
2022/08/15 05:50:12;;;;;;;8.27;4.63;;;;;;;21.22;61.51;100265.41;4917159;29;20028;-47
2022/08/15 05:52:50;;;;;;;9.35;4.20;;;;;;;21.24;61.73;100266.03;4916791;29;20052;-47
2022/08/15 05:55:34;;;;;;;6.55;4.07;;;;;;;21.22;61.90;100265.41;4918048;29;20055;-47
2022/08/15 05:58:16;;;;;;;9.27;4.45;;;;;;;21.19;61.27;100261.22;4915653;29;20043;-46
2022/08/15 06:00:48;;;;;;;7.07;4.30;;;;;;;21.20;62.29;100267.44;4912298;29;20234;-48
2022/08/15 06:03:17;;;;;;;7.13;4.05;;;;;;;21.23;62.41;100262.50;4906771;29;20028;-45
2022/08/15 06:05:50;;;;;;;11.07;4.55;;;;;;;21.29;61.92;100266.25;4921061;29;20063;-48
2022/08/15 06:08:24;;;;;;;8.02;4.30;;;;;;;21.21;60.86;100263.72;4915852;29;20104;-48
2022/08/15 06:11:10;;;;;;;6.50;4.13;;;;;;;21.28;61.40;100277.25;4917532;29;20059;-48
2022/08/15 06:13:45;;;;;;;5.22;3.85;;;;;;;21.27;60.86;100268.31;4916218;29;20071;-47
2022/08/15 06:16:19;;;;;;;5.70;3.85;;;;;;;21.30;61.39;100273.31;4905625;29;20048;-49
2022/08/15 06:18:46;;;;;;;9.18;4.18;;;;;;;21.31;61.84;100264.16;4906167;29;20504;-48
2022/08/15 06:21:40;;;;;;;5.38;4.20;;;;;;;21.38;60.86;100272.28;4907588;29;20028;-47
2022/08/15 06:24:36;;;;;;;8.32;3.85;;;;;;;21.40;60.44;100276.47;4906675;29;20044;-47
2022/08/15 06:27:04;;;;;;;9.50;4.10;;;;;;;21.46;61.51;100276.69;4909875;29;20118;-47
2022/08/15 06:29:40;;;;;;;9.18;4.55;;;;;;;21.50;61.41;100283.38;4916334;29;20136;-47
2022/08/15 06:32:11;;;;;;;7.15;4.45;;;;;;;21.52;61.48;100275.91;4904603;29;20064;-48
2022/08/15 06:34:58;;;;;;;13.55;4.30;;;;;;;21.55;60.96;100276.34;4914754;29;20043;-47
2022/08/15 06:37:46;;;;;;;12.27;4.55;;;;;;;21.62;61.33;100270.97;4903605;29;20033;-48
2022/08/15 06:40:33;;;;;;;7.97;4.18;;;;;;;21.61;61.11;100266.56;4909173;29;20043;-47
2022/08/15 06:42:59;;;;;;;10.45;4.68;;;;;;;21.74;61.71;100273.88;4914462;29;20040;-47
2022/08/15 06:45:37;;;;;;;7.20;4.10;;;;;;;21.75;61.91;100272.84;4907226;29;20035;-46
2022/08/15 06:48:20;;;;;;;6.40;3.97;;;;;;;21.74;61.37;100263.91;4912311;29;20404;-47
2022/08/15 06:50:55;;;;;;;7.18;3.92;;;;;;;21.77;61.33;100276.19;4906051;29;20043;-46
2022/08/15 06:53:45;;;;;;;7.40;4.22;;;;;;;21.83;61.66;100285.34;4913796;29;20047;-47
2022/08/15 06:56:24;;;;;;;6.35;3.90;;;;;;;21.85;61.41;100281.41;4915239;29;20040;-48
2022/08/15 06:59:06;;;;;;;9.23;4.45;;;;;;;21.88;60.97;100286.38;4903557;29;20048;-47
2022/08/15 07:01:54;;;;;;;8.35;4.00;;;;;;;21.94;60.98;100285.56;4899910;29;20024;-47
2022/08/15 07:04:28;;;;;;;6.63;4.45;;;;;;;21.93;61.25;100281.19;4904161;29;20044;-48
2022/08/15 07:07:04;;;;;;;8.43;4.60;;;;;;;22.06;60.87;100274.97;4913881;29;20107;-46
2022/08/15 07:09:55;;;;;;;11.07;4.40;;;;;;;22.20;60.75;100278.53;4914605;29;20038;-48
2022/08/15 07:12:26;;;;;;;10.93;4.68;;;;;;;22.43;60.81;100271.88;4913607;29;20131;-47
2022/08/15 07:15:10;;;;;;;6.88;4.47;;;;;;;22.60;60.31;100269.53;4915683;29;20036;-47
2022/08/15 07:17:51;;;;;;;9.85;4.05;;;;;;;22.83;60.02;100269.94;4913996;29;20028;-46
2022/08/15 07:20:17;;;;;;;10.18;4.32;;;;;;;23.05;59.03;100273.19;4917642;29;20028;-47
2022/08/15 07:22:43;;;;;;;8.75;4.78;;;;;;;23.21;58.68;100263.75;4913225;29;20572;-48
2022/08/15 07:25:18;;;;;;;9.13;5.03;;;;;;;23.33;57.96;100269.38;4901064;29;20115;-47
2022/08/15 07:27:55;;;;;;;8.60;5.30;;;;;;;23.44;57.61;100267.84;4919625;29;20059;-49
2022/08/15 07:30:36;;;;;;;7.88;4.80;;;;;;;23.50;57.83;100274.25;4919906;29;20480;-46
2022/08/15 07:33:01;;;;;;;7.75;4.70;;;;;;;23.57;57.65;100269.66;4909297;29;20043;-47
2022/08/15 07:35:34;;;;;;;7.83;5.03;;;;;;;23.59;56.89;100267.56;4919753;29;20024;-47
2022/08/15 07:38:06;;;;;;;7.70;5.35;;;;;;;23.69;56.68;100270.59;4919877;29;20272;-47
2022/08/15 07:40:40;;;;;;;9.43;5.07;;;;;;;23.77;56.85;100274.94;4912619;29;20087;-48
2022/08/15 07:43:27;;;;;;;6.57;4.80;;;;;;;23.90;56.25;100268.63;4919820;29;20036;-48
2022/08/15 07:46:07;;;;;;;8.05;4.65;;;;;;;24.02;56.60;100270.41;4912242;29;20122;-48
2022/08/15 07:48:33;;;;;;;9.00;4.75;;;;;;;24.02;55.80;100272.31;4918941;29;20063;-46
2022/08/15 07:51:05;;;;;;;13.82;5.82;;;;;;;24.07;56.10;100275.19;4919275;29;20527;-48
2022/08/15 07:53:30;;;;;;;7.85;5.68;;;;;;;24.11;55.37;100278.28;4919274;29;20448;-49
2022/08/15 07:56:04;;;;;;;9.23;5.18;;;;;;;24.15;55.72;100274.91;4919606;29;20029;-48
2022/08/15 07:58:31;;;;;;;6.68;4.78;;;;;;;24.25;55.68;100274.41;4918263;29;20039;-48
2022/08/15 08:01:29;;;;;;;9.18;5.20;;;;;;;24.38;55.37;100281.59;4904593;29;20134;-48
2022/08/15 08:04:17;;;;;;;;;;;;;;;24.51;54.51;100283.34;4906260;29;20092;-48
2022/08/15 08:07:19;;;;;;;8.50;5.22;;;;;;;24.44;54.99;100282.59;4908320;29;19910;-49
2022/08/15 08:09:55;;;;;;;9.95;5.20;;;;;;;24.47;53.92;100282.97;4916414;29;20071;-45
2022/08/15 08:12:34;;;;;;;8.27;4.82;;;;;;;24.54;54.23;100278.31;4934226;29;20088;-48
2022/08/15 08:15:26;;;;;;;9.00;4.82;;;;;;;24.60;54.41;100284.78;4912446;29;20044;-47
2022/08/15 08:18:01;;;;;;;9.35;4.38;;;;;;;24.67;54.36;100290.13;4904192;29;20040;-48
2022/08/15 08:20:34;;;;;;;9.27;4.57;;;;;;;24.78;54.31;100291.28;4899179;29;20024;-46
2022/08/15 08:23:04;;;;;;;11.05;4.40;;;;;;;24.74;54.10;100297.16;4907175;29;20114;-48
2022/08/15 08:25:53;;;;;;;8.27;4.75;;;;;;;24.81;54.02;100296.25;4901934;29;20029;-47
2022/08/15 08:28:47;;;;;;;11.55;4.82;;;;;;;24.82;54.08;100296.03;4917603;29;20048;-47
2022/08/15 08:31:21;;;;;;;8.25;4.80;;;;;;;24.85;53.15;100301.03;4919316;29;20064;-46
2022/08/15 08:34:14;;;;;;;11.80;4.05;;;;;;;24.88;53.94;100295.13;4909225;29;20063;-46
2022/08/15 08:36:53;;;;;;;5.72;3.88;;;;;;;24.92;53.65;100296.34;4915390;29;20498;-49
2022/08/15 08:39:41;;;;;;;7.60;4.65;;;;;;;25.00;53.32;100300.66;4902022;29;20367;-47
2022/08/15 08:42:16;;;;;;;8.13;4.35;;;;;;;24.89;53.12;100302.22;4909015;29;20103;-46
2022/08/15 08:45:13;;;;;;;8.98;4.38;;;;;;;24.87;53.95;100296.19;4908583;29;20029;-49
2022/08/15 08:48:05;;;;;;;7.90;4.80;;;;;;;24.89;53.73;100298.69;4913409;29;20059;-48
2022/08/15 08:51:03;;;;;;;8.13;4.35;;;;;;;24.80;54.42;100300.00;4903563;29;20269;-49
2022/08/15 08:53:29;;;;;;;8.52;4.80;;;;;;;24.80;53.97;100294.59;4908508;29;20051;-48
2022/08/15 08:55:58;;;;;;;8.35;4.50;;;;;;;24.73;54.59;100300.09;4917529;29;20038;-50
2022/08/15 08:58:33;;;;;;;6.18;4.68;;;;;;;24.71;54.09;100291.34;4922710;29;20592;-50
2022/08/15 09:00:59;;;;;;;5.95;4.32;;;;;;;24.70;54.46;100290.50;4919840;29;20379;-49
2022/08/15 09:03:34;;;;;;;6.50;4.18;;;;;;;24.67;54.56;100301.81;4920839;29;20028;-51
2022/08/15 09:06:01;;;;;;;7.85;4.40;;;;;;;24.60;54.28;100303.78;4913928;29;20042;-51
2022/08/15 09:08:35;;;;;;;7.93;4.80;;;;;;;24.58;54.45;100307.75;4908088;29;20403;-49
2022/08/15 09:11:09;;;;;;;7.53;4.68;;;;;;;24.60;55.43;100306.50;4921017;29;20025;-52
2022/08/15 09:13:38;;;;;;;7.57;4.30;;;;;;;24.62;54.99;100315.25;4920156;29;20035;-49
2022/08/15 09:16:16;;;;;;;7.43;4.15;;;;;;;24.70;55.01;100314.97;4918464;29;20516;-50
2022/08/15 09:19:00;;;;;;;7.27;4.50;;;;;;;24.72;55.26;100321.00;4916086;29;20044;-49
2022/08/15 09:21:26;;;;;;;8.43;4.30;;;;;;;24.72;55.83;100322.88;4903810;29;20148;-50
2022/08/15 09:23:54;;;;;;;10.45;5.00;;;;;;;24.75;55.66;100322.44;4905666;29;20060;-49
2022/08/15 09:26:33;;;;;;;7.30;4.70;;;;;;;24.87;54.96;100320.63;4906022;29;20498;-47
2022/08/15 09:29:08;;;;;;;11.38;5.25;;;;;;;24.90;55.10;100312.03;4905444;29;20088;-48
2022/08/15 09:31:37;;;;;;;16.45;5.47;;;;;;;24.92;54.66;100315.34;4907178;29;20503;-48
2022/08/15 09:34:15;;;;;;;8.68;5.22;;;;;;;24.96;54.70;100314.91;4911356;29;20039;-50
2022/08/15 09:37:08;;;;;;;8.27;5.47;;;;;;;25.02;54.17;100316.72;4902412;29;20028;-48
2022/08/15 09:40:04;;;;;;;9.65;5.28;;;;;;;25.08;54.56;100316.66;4902883;29;20024;-48
2022/08/15 09:42:51;;;;;;;8.65;5.10;;;;;;;25.07;54.63;100319.59;4903190;29;20036;-50
2022/08/15 09:45:47;;;;;;;15.38;5.60;;;;;;;25.14;54.05;100317.63;4904054;29;20388;-50
2022/08/15 09:48:22;;;;;;;11.70;5.78;;;;;;;25.22;54.03;100320.03;4913422;29;20436;-45
2022/08/15 09:51:02;;;;;;;9.80;6.20;;;;;;;25.30;54.69;100316.22;4916057;29;20036;-46
2022/08/15 09:53:54;;;;;;;7.22;5.10;;;;;;;25.43;53.82;100320.63;4917527;29;20080;-45
2022/08/15 09:56:25;;;;;;;9.43;5.68;;;;;;;25.46;54.05;100317.47;4909064;29;20028;-46
2022/08/15 09:59:04;;;;;;;9.52;5.50;;;;;;;25.55;54.21;100316.09;4917543;29;20028;-46
2022/08/15 10:01:40;;;;;;;8.20;5.72;;;;;;;25.58;53.67;100318.38;4904806;29;20031;-45
2022/08/15 10:04:09;;;;;;;8.95;5.78;;;;;;;25.63;53.63;100323.09;4916360;29;20111;-48
2022/08/15 10:07:03;;;;;;;11.50;5.72;;;;;;;25.75;53.36;100320.47;4917176;29;20024;-46
2022/08/15 10:09:30;;;;;;;10.75;6.03;;;;;;;25.75;53.13;100315.84;4917184;29;20028;-48
2022/08/15 10:12:15;;;;;;;9.65;5.75;;;;;;;25.83;53.03;100311.94;4914009;29;20048;-45
2022/08/15 10:14:52;;;;;;;9.00;5.47;;;;;;;25.86;52.74;100314.19;4900293;29;20400;-47
2022/08/15 10:17:38;;;;;;;8.25;5.00;;;;;;;26.05;52.34;100317.72;4909313;29;20045;-45
2022/08/15 10:20:15;;;;;;;6.13;4.93;;;;;;;26.15;52.32;100317.16;4900052;29;20033;-47
2022/08/15 10:23:08;;;;;;;7.35;5.13;;;;;;;26.18;51.62;100313.94;4910087;29;20039;-46
2022/08/15 10:25:43;;;;;;;8.90;4.90;;;;;;;26.12;51.48;100312.19;4912853;29;20035;-44
2022/08/15 10:28:12;;;;;;;8.10;4.63;;;;;;;26.26;51.95;100315.50;4916507;29;20043;-47
2022/08/15 10:31:04;;;;;;;9.68;4.75;;;;;;;26.37;51.42;100323.69;4910399;29;20047;-46
2022/08/15 10:33:39;;;;;;;6.82;4.85;;;;;;;26.35;51.06;100325.81;4906979;29;21221;-46
2022/08/15 10:36:13;;;;;;;6.93;4.80;;;;;;;26.43;51.00;100324.66;4902936;29;20052;-46
2022/08/15 10:38:45;;;;;;;4.93;4.38;;;;;;;26.37;50.76;100318.25;4910265;29;20123;-45
2022/08/15 10:41:17;;;;;;;7.45;4.55;;;;;;;26.32;50.68;100320.84;4909598;29;20480;-45
2022/08/15 10:43:46;;;;;;;6.10;4.40;;;;;;;26.35;50.75;100325.00;4904249;29;20485;-45
2022/08/15 10:46:49;;;;;;;9.57;4.07;;;;;;;26.48;51.05;100324.78;4908103;29;20028;-46
2022/08/15 10:49:21;;;;;;;9.05;5.07;;;;;;;26.40;51.08;100325.94;4888115;29;20091;-46
2022/08/15 10:52:13;;;;;;;7.97;4.40;;;;;;;26.48;51.07;100332.09;4911974;29;20044;-46
2022/08/15 10:55:14;;;;;;;14.10;5.13;;;;;;;26.50;51.06;100338.16;4902194;29;20179;-46
2022/08/15 10:57:48;;;;;;;14.32;5.10;;;;;;;26.34;51.39;100332.31;4890695;29;20055;-46
2022/08/15 11:00:33;;;;;;;14.75;4.85;;;;;;;26.36;51.39;100337.53;4901315;29;20028;-47
2022/08/15 11:03:03;;;;;;;13.38;4.90;;;;;;;26.36;50.95;100332.94;4904596;29;20044;-46
2022/08/15 11:05:28;;;;;;;6.90;4.45;;;;;;;26.26;51.17;100329.94;4899957;29;20448;-46
2022/08/15 11:07:55;;;;;;;8.68;4.30;;;;;;;26.22;50.35;100334.22;4902449;29;20116;-47
2022/08/15 11:10:24;;;;;;;8.85;4.15;;;;;;;26.25;50.16;100333.75;4901705;29;20038;-44
2022/08/15 11:12:53;;;;;;;7.10;4.22;;;;;;;26.21;50.60;100332.53;4899834;29;20039;-45
2022/08/15 11:15:20;;;;;;;7.57;4.05;;;;;;;26.14;52.31;100335.38;4899146;29;20112;-46
2022/08/15 11:17:51;;;;;;;8.38;4.45;;;;;;;26.27;51.10;100328.06;4901308;29;20028;-47
2022/08/15 11:20:24;;;;;;;7.40;4.30;;;;;;;26.21;51.01;100333.38;4900022;29;20469;-47
2022/08/15 11:22:59;;;;;;;11.00;4.50;;;;;;;26.18;51.55;100333.84;4900823;29;20032;-47
2022/08/15 11:25:27;;;;;;;7.13;4.28;;;;;;;26.17;50.95;100326.75;4902660;29;20088;-46
2022/08/15 11:28:03;;;;;;;9.45;4.18;;;;;;;26.13;51.85;100335.59;4899115;29;20067;-46
2022/08/15 11:30:33;;;;;;;8.35;4.05;;;;;;;26.09;50.52;100321.63;4899192;29;20500;-46
2022/08/15 11:33:26;;;;;;;10.15;4.15;;;;;;;26.20;50.63;100331.72;4896912;29;20496;-45
2022/08/15 11:36:15;;;;;;;8.07;4.40;;;;;;;26.26;50.69;100327.22;4913070;29;20036;-45
2022/08/15 11:38:47;;;;;;;5.55;3.88;;;;;;;26.17;50.82;100326.75;4914682;29;20031;-47
2022/08/15 11:41:22;;;;;;;10.93;4.38;;;;;;;26.29;50.58;100320.50;4909730;29;20111;-46
2022/08/15 11:43:51;;;;;;;6.22;4.18;;;;;;;26.27;50.23;100325.34;4916405;29;20507;-45
2022/08/15 11:46:18;;;;;;;7.53;4.70;;;;;;;26.35;50.51;100333.19;4916036;29;20031;-46
2022/08/15 11:48:49;;;;;;;4.80;4.00;;;;;;;26.26;51.61;100331.84;4915912;29;20032;-45
2022/08/15 11:51:14;;;;;;;9.32;4.40;;;;;;;26.37;49.63;100337.31;4914268;29;20119;-45